createdAt,value
2017-11-29T00:02:19.705Z,3.50
2017-11-29T00:04:47.380Z,3.40
2017-11-29T00:07:15.079Z,3.27
2017-11-29T00:09:43.507Z,3.57
2017-11-29T00:12:11.141Z,3.13
2017-11-29T00:14:38.829Z,3.30
2017-11-29T00:17:06.477Z,3.47
2017-11-29T00:19:34.236Z,3.30
2017-11-29T00:22:01.872Z,3.30
2017-11-29T00:24:30.396Z,3.00
2017-11-29T00:26:58.050Z,2.77
2017-11-29T00:29:25.702Z,2.80
2017-11-29T00:31:53.389Z,3.20
2017-11-29T00:34:21.069Z,2.73
2017-11-29T00:36:48.828Z,3.20
2017-11-29T00:39:16.547Z,2.90
2017-11-29T00:41:44.204Z,2.90
2017-11-29T00:44:12.189Z,3.20
2017-11-29T00:46:39.817Z,3.00
2017-11-29T00:49:07.468Z,3.40
2017-11-29T00:51:35.865Z,3.10
2017-11-29T00:54:03.569Z,2.87
2017-11-29T00:56:31.259Z,2.77
2017-11-29T00:58:59.710Z,2.73
2017-11-29T01:01:27.407Z,2.53
2017-11-29T01:03:55.159Z,2.90
2017-11-29T01:06:23.617Z,2.90
2017-11-29T01:08:51.235Z,2.50
2017-11-29T01:11:18.949Z,2.70
2017-11-29T01:13:47.357Z,2.57
2017-11-29T01:16:15.772Z,3.27
2017-11-29T01:18:43.441Z,2.70
2017-11-29T01:21:11.068Z,2.80
2017-11-29T01:23:38.768Z,2.50
2017-11-29T01:26:06.453Z,3.57
2017-11-29T01:28:34.875Z,2.53
2017-11-29T01:31:02.495Z,2.77
2017-11-29T01:33:31.016Z,2.80
2017-11-29T01:35:58.634Z,2.30
2017-11-29T01:38:27.104Z,2.40
2017-11-29T01:40:55.593Z,2.70
2017-11-29T01:43:24.060Z,3.00
2017-11-29T01:45:52.552Z,2.50
2017-11-29T01:48:20.984Z,2.70
2017-11-29T01:50:48.651Z,2.60
2017-11-29T01:53:16.345Z,2.83
2017-11-29T01:55:44.937Z,2.67
2017-11-29T01:58:13.371Z,2.67
2017-11-29T02:00:50.018Z,3.07
2017-11-29T02:03:18.544Z,2.97
2017-11-29T02:05:46.188Z,3.30
2017-11-29T02:08:13.889Z,3.13
2017-11-29T02:10:42.335Z,3.40
2017-11-29T02:13:10.037Z,3.20
2017-11-29T02:15:37.776Z,3.23
2017-11-29T02:18:06.288Z,3.73
2017-11-29T02:20:33.991Z,3.07
2017-11-29T02:23:01.766Z,3.70
2017-11-29T02:25:29.452Z,3.73
2017-11-29T02:27:57.938Z,3.10
2017-11-29T02:30:25.706Z,3.60
2017-11-29T02:32:53.404Z,3.50
2017-11-29T02:35:21.129Z,4.17
2017-11-29T02:37:48.822Z,3.77
2017-11-29T02:40:28.356Z,3.23
2017-11-29T02:42:56.091Z,3.27
2017-11-29T02:45:23.844Z,4.30
2017-11-29T02:47:51.618Z,3.60
2017-11-29T02:50:19.376Z,3.63
2017-11-29T02:52:47.085Z,4.30
2017-11-29T02:55:14.863Z,4.20
2017-11-29T02:57:42.698Z,3.97
2017-11-29T03:00:10.407Z,3.57
2017-11-29T03:02:39.021Z,3.93
2017-11-29T03:05:06.838Z,4.33
2017-11-29T03:07:34.548Z,3.80
2017-11-29T03:10:02.198Z,4.00
2017-11-29T03:12:30.603Z,3.83
2017-11-29T03:14:58.232Z,4.03
2017-11-29T03:17:25.889Z,4.10
2017-11-29T03:19:53.652Z,4.30
2017-11-29T03:22:21.304Z,3.90
2017-11-29T03:24:49.878Z,4.57
2017-11-29T03:27:18.303Z,4.30
2017-11-29T03:29:46.013Z,4.13
2017-11-29T03:32:14.440Z,4.63
2017-11-29T03:34:42.048Z,4.23
2017-11-29T03:37:10.626Z,3.73
2017-11-29T03:39:38.241Z,4.77
2017-11-29T03:42:05.921Z,3.90
2017-11-29T03:44:33.533Z,3.87
2017-11-29T03:47:01.144Z,4.10
2017-11-29T03:49:29.369Z,4.47
2017-11-29T03:51:57.138Z,3.70
2017-11-29T03:54:24.784Z,3.90
2017-11-29T03:56:52.392Z,4.20
2017-11-29T03:59:20.091Z,4.00
2017-11-29T04:01:48.476Z,4.50
2017-11-29T04:04:16.154Z,4.83
2017-11-29T04:06:45.017Z,3.90
2017-11-29T04:09:13.463Z,3.83
2017-11-29T04:11:41.207Z,4.27
2017-11-29T04:14:09.668Z,3.63
2017-11-29T04:16:37.361Z,4.27
2017-11-29T04:19:06.839Z,4.00
2017-11-29T04:21:34.530Z,4.43
2017-11-29T04:24:02.282Z,3.67
2017-11-29T04:26:29.956Z,4.47
2017-11-29T04:28:57.695Z,3.60
2017-11-29T04:31:25.320Z,4.10
2017-11-29T04:33:52.945Z,4.40
2017-11-29T04:36:20.602Z,4.00
2017-11-29T04:38:48.228Z,4.00
2017-11-29T04:41:15.961Z,4.00
2017-11-29T04:43:43.624Z,4.03
2017-11-29T04:46:12.509Z,4.00
2017-11-29T04:48:40.193Z,3.90
2017-11-29T04:51:08.693Z,3.90
2017-11-29T04:53:36.472Z,3.90
2017-11-29T04:56:04.190Z,4.13
2017-11-29T04:58:31.964Z,4.30
2017-11-29T05:01:00.450Z,3.97
2017-11-29T05:03:28.244Z,4.00
2017-11-29T05:05:56.017Z,3.80
2017-11-29T05:08:23.723Z,4.20
2017-11-29T05:10:51.459Z,4.40
2017-11-29T05:13:19.225Z,4.43
2017-11-29T05:15:47.721Z,4.30
2017-11-29T05:18:15.485Z,4.60
2017-11-29T05:20:43.381Z,4.33
2017-11-29T05:23:11.086Z,4.77
2017-11-29T05:25:39.524Z,4.90
2017-11-29T05:28:07.243Z,4.17
2017-11-29T05:30:35.004Z,4.40
2017-11-29T05:33:02.939Z,4.80
2017-11-29T05:35:31.468Z,4.57
2017-11-29T05:37:59.160Z,4.23
2017-11-29T05:40:26.970Z,4.57
2017-11-29T05:42:55.440Z,4.90
2017-11-29T05:45:23.997Z,5.20
2017-11-29T05:47:51.680Z,5.37
2017-11-29T05:50:19.370Z,4.57
2017-11-29T05:52:47.188Z,5.57
2017-11-29T05:55:14.942Z,5.20
2017-11-29T05:57:42.748Z,5.50
2017-11-29T06:00:10.420Z,5.27
2017-11-29T06:02:39.017Z,5.57
2017-11-29T06:05:06.768Z,5.07
2017-11-29T06:07:34.548Z,5.33
2017-11-29T06:10:02.357Z,4.97
2017-11-29T06:12:30.818Z,5.70
2017-11-29T06:14:58.501Z,5.60
2017-11-29T06:17:26.940Z,6.30
2017-11-29T06:19:54.591Z,5.40
2017-11-29T06:22:22.502Z,6.30
2017-11-29T06:24:50.945Z,4.93
2017-11-29T06:27:18.658Z,6.10
2017-11-29T06:29:46.331Z,5.70
2017-11-29T06:32:14.164Z,5.23
2017-11-29T06:34:41.897Z,5.30
2017-11-29T06:37:09.530Z,5.80
2017-11-29T06:39:37.188Z,5.70
2017-11-29T06:42:05.928Z,5.93
2017-11-29T06:44:33.562Z,5.50
2017-11-29T06:47:01.249Z,5.37
2017-11-29T06:49:29.677Z,6.10
2017-11-29T06:51:57.301Z,5.97
2017-11-29T06:54:25.729Z,5.87
2017-11-29T06:56:53.371Z,5.37
2017-11-29T06:59:21.102Z,5.83
2017-11-29T07:01:49.610Z,6.53
2017-11-29T07:04:17.321Z,6.23
2017-11-29T07:06:44.956Z,5.97
2017-11-29T07:09:13.023Z,7.27
2017-11-29T07:11:40.692Z,7.10
2017-11-29T07:14:08.320Z,7.80
2017-11-29T07:16:36.025Z,7.60
2017-11-29T07:19:03.678Z,8.50
2017-11-29T07:21:31.321Z,7.50
2017-11-29T07:23:59.015Z,9.13
2017-11-29T07:26:26.666Z,9.13
2017-11-29T07:28:54.336Z,9.00
2017-11-29T07:31:22.001Z,8.73
2017-11-29T07:33:50.391Z,8.00
2017-11-29T07:36:18.119Z,8.17
2017-11-29T07:38:45.797Z,8.70
2017-11-29T07:41:13.431Z,8.43
2017-11-29T07:43:41.086Z,8.13
2017-11-29T07:46:08.717Z,8.07
2017-11-29T07:48:36.517Z,8.30
2017-11-29T07:51:04.137Z,7.60
2017-11-29T07:53:31.776Z,7.80
2017-11-29T07:55:59.449Z,7.97
2017-11-29T07:58:27.109Z,8.30
2017-11-29T08:00:55.615Z,7.30
2017-11-29T08:03:23.253Z,7.60
2017-11-29T08:05:50.866Z,7.77
2017-11-29T08:08:18.518Z,7.27
2017-11-29T08:10:46.168Z,7.47
2017-11-29T08:13:13.833Z,7.40
2017-11-29T08:15:41.459Z,8.63
2017-11-29T08:18:09.155Z,8.00
2017-11-29T08:20:37.724Z,8.00
2017-11-29T08:23:05.403Z,8.87
2017-11-29T08:25:33.160Z,7.60
2017-11-29T08:28:00.837Z,7.37
2017-11-29T08:30:28.507Z,8.23
2017-11-29T08:32:57.093Z,8.37
2017-11-29T08:35:25.693Z,8.00
2017-11-29T08:37:54.093Z,8.20
2017-11-29T08:40:21.781Z,8.17
2017-11-29T08:42:49.506Z,8.70
2017-11-29T08:45:17.207Z,9.07
2017-11-29T08:47:45.047Z,8.43
2017-11-29T08:50:12.822Z,8.70
2017-11-29T08:52:40.495Z,9.07
2017-11-29T08:55:08.234Z,7.73
2017-11-29T08:57:35.928Z,8.63
2017-11-29T09:00:03.679Z,8.93
2017-11-29T09:02:31.361Z,8.63
2017-11-29T09:04:59.096Z,8.37
2017-11-29T09:07:26.896Z,9.30
2017-11-29T09:09:54.595Z,8.40
2017-11-29T09:12:22.346Z,9.20
2017-11-29T09:14:50.057Z,7.93
2017-11-29T09:17:17.776Z,7.23
2017-11-29T09:19:45.505Z,7.23
2017-11-29T09:22:14.025Z,9.23
2017-11-29T09:24:41.776Z,8.17
2017-11-29T09:27:09.454Z,6.93
2017-11-29T09:29:37.165Z,8.00
2017-11-29T09:32:05.642Z,7.57
2017-11-29T09:34:33.360Z,7.80
2017-11-29T09:37:01.109Z,7.40
2017-11-29T09:39:28.827Z,7.00
2017-11-29T09:41:56.513Z,7.00
2017-11-29T09:44:24.213Z,6.77
2017-11-29T09:46:51.928Z,6.43
2017-11-29T09:49:19.655Z,5.63
2017-11-29T09:51:47.342Z,6.23
2017-11-29T09:54:15.793Z,6.40
2017-11-29T09:56:43.525Z,6.37
2017-11-29T09:59:11.256Z,6.53
2017-11-29T10:01:39.782Z,6.03
2017-11-29T10:04:07.479Z,6.50
2017-11-29T10:06:35.945Z,5.67
2017-11-29T10:09:03.701Z,5.77
2017-11-29T10:11:31.369Z,4.77
2017-11-29T10:13:59.072Z,3.30
2017-11-29T10:16:26.762Z,3.00
2017-11-29T10:18:54.477Z,2.33
2017-11-29T10:21:22.929Z,2.50
2017-11-29T10:23:50.626Z,2.43
2017-11-29T10:26:18.339Z,3.00
2017-11-29T10:28:46.049Z,3.10
2017-11-29T10:31:13.790Z,3.70
2017-11-29T10:33:42.237Z,3.00
2017-11-29T10:36:09.940Z,2.80
2017-11-29T10:38:38.424Z,3.00
2017-11-29T10:41:06.109Z,3.00
2017-11-29T10:43:33.863Z,2.83
2017-11-29T10:46:01.552Z,2.50
2017-11-29T10:48:29.232Z,3.13
2017-11-29T10:50:56.945Z,2.57
2017-11-29T10:53:24.640Z,3.43
2017-11-29T10:55:52.379Z,3.10
2017-11-29T10:58:20.081Z,3.40
2017-11-29T11:00:47.766Z,4.17
2017-11-29T11:03:16.248Z,4.13
2017-11-29T11:05:44.685Z,4.07
2017-11-29T11:08:12.439Z,3.93
2017-11-29T11:10:40.184Z,3.37
2017-11-29T11:13:07.877Z,4.27
2017-11-29T11:15:35.585Z,4.30
2017-11-29T11:18:04.032Z,5.00
2017-11-29T11:20:32.565Z,4.50
2017-11-29T11:23:00.301Z,4.83
2017-11-29T11:25:28.879Z,5.60
2017-11-29T11:27:57.431Z,4.80
2017-11-29T11:30:25.169Z,4.50
2017-11-29T11:32:52.870Z,4.50
2017-11-29T11:35:21.321Z,4.10
2017-11-29T11:37:49.074Z,3.97
2017-11-29T11:40:16.751Z,5.10
2017-11-29T11:42:44.437Z,5.13
2017-11-29T11:45:12.917Z,4.97
2017-11-29T11:47:40.596Z,5.50
2017-11-29T11:50:08.335Z,6.07
2017-11-29T11:52:36.786Z,5.67
2017-11-29T11:55:04.492Z,5.57
2017-11-29T11:57:32.232Z,5.00
2017-11-29T11:59:59.975Z,5.57
2017-11-29T12:02:27.706Z,5.30
2017-11-29T12:04:55.442Z,5.20
2017-11-29T12:07:23.148Z,6.70
2017-11-29T12:09:50.898Z,6.70
2017-11-29T12:12:18.609Z,7.07
2017-11-29T12:14:47.130Z,7.20
2017-11-29T12:17:14.846Z,7.80
2017-11-29T12:19:42.589Z,6.37
2017-11-29T12:22:10.305Z,8.07
2017-11-29T12:24:38.017Z,7.30
2017-11-29T12:27:05.752Z,7.10
2017-11-29T12:29:33.457Z,7.63
2017-11-29T12:32:01.945Z,7.47
2017-11-29T12:34:30.357Z,7.60
2017-11-29T12:36:58.042Z,7.73
2017-11-29T12:39:25.777Z,7.47
2017-11-29T12:41:53.459Z,7.50
2017-11-29T12:44:21.146Z,7.23
2017-11-29T12:46:48.894Z,8.40
2017-11-29T12:49:28.460Z,8.50
2017-11-29T12:51:56.928Z,8.60
2017-11-29T12:54:24.608Z,7.47
2017-11-29T12:56:53.184Z,7.60
2017-11-29T12:59:21.638Z,6.50
2017-11-29T13:01:49.369Z,6.07
2017-11-29T13:04:17.125Z,5.30
2017-11-29T13:06:44.818Z,6.50
2017-11-29T13:09:12.501Z,5.87
2017-11-29T13:11:40.320Z,6.23
2017-11-29T13:14:08.010Z,5.60
2017-11-29T13:16:35.678Z,6.27
2017-11-29T13:19:03.425Z,5.87
2017-11-29T13:21:31.132Z,6.57
2017-11-29T13:23:59.669Z,5.53
2017-11-29T13:26:27.356Z,7.83
2017-11-29T13:28:55.093Z,6.10
2017-11-29T13:31:22.811Z,6.23
2017-11-29T13:33:50.509Z,7.23
2017-11-29T13:36:18.259Z,7.00
2017-11-29T13:38:45.942Z,6.67
2017-11-29T13:41:13.632Z,7.50
2017-11-29T13:43:42.107Z,7.00
2017-11-29T13:46:10.557Z,7.23
2017-11-29T13:48:38.302Z,7.13
2017-11-29T13:51:05.986Z,7.10
2017-11-29T13:53:33.674Z,7.57
2017-11-29T13:56:02.156Z,8.30
2017-11-29T13:58:30.817Z,7.50
2017-11-29T14:00:58.550Z,8.00
2017-11-29T14:03:26.210Z,7.80
2017-11-29T14:05:53.928Z,8.50
2017-11-29T14:08:22.467Z,9.10
2017-11-29T14:10:50.193Z,7.67
2017-11-29T14:13:17.868Z,8.40
2017-11-29T14:15:45.517Z,8.47
2017-11-29T14:18:13.186Z,8.20
2017-11-29T14:20:40.833Z,8.90
2017-11-29T14:23:08.533Z,10.00
2017-11-29T14:25:36.176Z,8.87
2017-11-29T14:28:03.810Z,9.20
2017-11-29T14:30:31.448Z,9.80
2017-11-29T14:32:59.837Z,10.03
2017-11-29T14:35:27.625Z,10.60
2017-11-29T14:37:55.356Z,10.10
2017-11-29T14:40:23.758Z,10.70
2017-11-29T14:42:51.464Z,10.20
2017-11-29T14:45:19.160Z,8.83
2017-11-29T14:47:46.859Z,10.80
2017-11-29T14:50:14.560Z,9.70
2017-11-29T14:52:42.224Z,8.93
2017-11-29T14:55:10.673Z,10.20
2017-11-29T14:57:38.309Z,10.13
2017-11-29T15:00:06.116Z,10.40
2017-11-29T15:02:33.744Z,9.30
2017-11-29T15:05:01.354Z,10.40
2017-11-29T15:07:29.773Z,9.90
2017-11-29T15:09:57.400Z,10.13
2017-11-29T15:12:25.065Z,10.43
2017-11-29T15:14:52.685Z,9.80
2017-11-29T15:17:20.477Z,10.00
2017-11-29T15:19:48.853Z,10.70
2017-11-29T15:22:17.252Z,11.00
2017-11-29T15:24:44.925Z,9.87
2017-11-29T15:27:14.313Z,11.70
2017-11-29T15:29:42.016Z,11.30
2017-11-29T15:32:09.715Z,10.87
2017-11-29T15:34:37.520Z,12.27
2017-11-29T15:37:05.178Z,12.00
2017-11-29T15:39:32.851Z,10.87
2017-11-29T15:42:00.522Z,10.80
2017-11-29T15:44:28.880Z,10.93
2017-11-29T15:46:56.743Z,11.90
2017-11-29T15:49:24.403Z,11.30
2017-11-29T15:51:52.052Z,11.60
2017-11-29T15:54:19.743Z,10.90
2017-11-29T15:56:47.382Z,11.53
2017-11-29T15:59:15.188Z,11.80
2017-11-29T16:01:43.611Z,10.30
2017-11-29T16:04:11.263Z,7.80
2017-11-29T16:06:38.961Z,8.30
2017-11-29T16:09:06.629Z,7.60
2017-11-29T16:11:34.329Z,7.90
2017-11-29T16:14:02.813Z,8.43
2017-11-29T16:16:30.521Z,8.63
2017-11-29T16:18:58.232Z,8.87
2017-11-29T16:21:25.957Z,9.47
2017-11-29T16:23:53.721Z,10.97
2017-11-29T16:26:22.124Z,8.90
2017-11-29T16:28:49.846Z,10.00
2017-11-29T16:31:17.591Z,9.73
2017-11-29T16:33:45.297Z,10.77
2017-11-29T16:36:12.996Z,18.83
2017-11-29T16:38:40.644Z,18.77
2017-11-29T16:41:08.291Z,20.13
2017-11-29T16:43:36.786Z,12.30
2017-11-29T16:46:04.425Z,10.77
2017-11-29T16:48:32.920Z,9.67
2017-11-29T16:51:00.544Z,10.00
2017-11-29T16:53:28.189Z,9.70
2017-11-29T16:55:55.888Z,10.47
2017-11-29T16:58:24.382Z,11.07
2017-11-29T17:00:52.109Z,11.87
2017-11-29T17:03:19.827Z,11.07
2017-11-29T17:05:47.574Z,11.60
2017-11-29T17:08:15.253Z,9.90
2017-11-29T17:10:42.883Z,10.43
2017-11-29T17:13:10.632Z,10.57
2017-11-29T17:15:39.026Z,34.23
2017-11-29T17:18:06.728Z,16.87
2017-11-29T17:20:34.476Z,14.97
2017-11-29T17:23:02.156Z,13.67
2017-11-29T17:25:29.859Z,14.50
2017-11-29T17:27:57.524Z,14.63
2017-11-29T17:30:30.095Z,14.43
2017-11-29T17:32:58.660Z,12.43
2017-11-29T17:35:26.369Z,12.93
2017-11-29T17:37:54.093Z,12.53
2017-11-29T17:40:22.530Z,14.57
2017-11-29T17:42:50.221Z,17.93
2017-11-29T17:45:17.914Z,22.97
2017-11-29T17:47:45.721Z,15.90
2017-11-29T17:50:13.372Z,16.10
2017-11-29T17:52:41.157Z,14.67
2017-11-29T17:55:08.845Z,16.00
2017-11-29T17:57:37.273Z,13.23
2017-11-29T18:00:05.026Z,13.70
2017-11-29T18:02:32.668Z,14.77
2017-11-29T18:05:00.373Z,14.17
2017-11-29T18:07:28.228Z,13.67
2017-11-29T18:09:55.983Z,11.30
2017-11-29T18:12:23.666Z,10.57
2017-11-29T18:14:51.361Z,11.77
2017-11-29T18:17:19.893Z,11.00
2017-11-29T18:19:47.559Z,11.83
2017-11-29T18:22:15.336Z,10.83
2017-11-29T18:24:43.159Z,9.77
2017-11-29T18:27:10.841Z,9.90
2017-11-29T18:29:38.554Z,10.80
2017-11-29T18:32:06.250Z,10.73
2017-11-29T18:34:33.997Z,10.63
2017-11-29T18:37:01.629Z,11.33
2017-11-29T18:39:29.320Z,9.20
2017-11-29T18:41:56.948Z,9.83
2017-11-29T18:44:25.375Z,9.37
2017-11-29T18:46:53.081Z,16.50
2017-11-29T18:49:21.531Z,9.07
2017-11-29T18:51:49.277Z,8.50
2017-11-29T18:54:17.107Z,8.87
2017-11-29T18:56:44.857Z,8.90
2017-11-29T18:59:13.403Z,12.67
2017-11-29T19:01:41.155Z,11.03
2017-11-29T19:04:08.898Z,9.80
2017-11-29T19:06:36.693Z,14.93
2017-11-29T19:09:04.480Z,10.17
2017-11-29T19:11:32.412Z,10.13
2017-11-29T19:14:00.192Z,10.47
2017-11-29T19:16:27.910Z,11.37
2017-11-29T19:18:55.771Z,11.50
2017-11-29T19:21:23.540Z,10.83
2017-11-29T19:23:52.046Z,11.87
2017-11-29T19:26:19.777Z,11.57
2017-11-29T19:28:47.577Z,12.13
2017-11-29T19:31:15.375Z,10.03
2017-11-29T19:33:43.876Z,12.47
2017-11-29T19:36:11.663Z,12.53
2017-11-29T19:38:39.396Z,12.47
2017-11-29T19:41:07.230Z,11.57
2017-11-29T19:43:35.729Z,12.93
2017-11-29T19:46:03.461Z,12.83
2017-11-29T19:48:31.203Z,13.20
2017-11-29T19:50:59.073Z,13.20
2017-11-29T19:53:26.905Z,12.87
2017-11-29T19:55:54.692Z,13.20
2017-11-29T19:58:22.641Z,11.87
2017-11-29T20:00:50.464Z,11.73
2017-11-29T20:03:19.049Z,10.23
2017-11-29T20:05:47.653Z,11.97
2017-11-29T20:08:15.420Z,10.77
2017-11-29T20:10:43.179Z,11.40
2017-11-29T20:13:11.120Z,11.20
2017-11-29T20:15:39.668Z,10.53
2017-11-29T20:18:07.413Z,10.80
2017-11-29T20:20:35.203Z,11.30
2017-11-29T20:23:03.121Z,10.70
2017-11-29T20:25:30.969Z,11.60
2017-11-29T20:27:58.938Z,12.40
2017-11-29T20:30:26.813Z,12.60
2017-11-29T20:32:54.727Z,11.83
2017-11-29T20:35:22.679Z,11.67
2017-11-29T20:37:50.588Z,11.17
2017-11-29T20:40:19.294Z,12.17
2017-11-29T20:42:47.777Z,11.37
2017-11-29T20:45:15.504Z,11.60
2017-11-29T20:47:43.252Z,12.40
2017-11-29T20:50:11.036Z,11.83
2017-11-29T20:52:51.423Z,11.73
2017-11-29T20:55:19.299Z,12.67
2017-11-29T20:57:47.177Z,13.63
2017-11-29T21:00:15.257Z,12.43
2017-11-29T21:02:43.166Z,12.47
2017-11-29T21:05:11.837Z,12.90
2017-11-29T21:07:39.584Z,12.63
2017-11-29T21:10:07.427Z,13.30
2017-11-29T21:12:35.476Z,14.10
2017-11-29T21:15:03.385Z,14.40
2017-11-29T21:17:31.339Z,14.00
2017-11-29T21:19:59.187Z,13.90
2017-11-29T21:22:26.981Z,13.77
2017-11-29T21:24:54.880Z,13.63
2017-11-29T21:27:22.537Z,14.03
2017-11-29T21:29:50.216Z,13.57
2017-11-29T21:32:17.905Z,13.30
2017-11-29T21:34:45.548Z,14.73
2017-11-29T21:37:13.223Z,14.30
2017-11-29T21:39:40.852Z,15.17
2017-11-29T21:42:08.571Z,17.20
2017-11-29T21:44:36.280Z,15.57
2017-11-29T21:47:04.021Z,15.60
2017-11-29T21:49:32.604Z,14.17
2017-11-29T21:52:00.502Z,16.13
2017-11-29T21:54:28.614Z,15.60
2017-11-29T21:56:56.885Z,13.80
2017-11-29T21:59:24.847Z,15.40
2017-11-29T22:01:52.777Z,16.00
2017-11-29T22:04:20.771Z,15.97
2017-11-29T22:06:48.674Z,14.47
2017-11-29T22:09:17.409Z,15.73
2017-11-29T22:11:45.207Z,16.13
2017-11-29T22:14:13.689Z,17.33
2017-11-29T22:16:42.134Z,16.33
2017-11-29T22:19:09.861Z,17.33
2017-11-29T22:21:37.779Z,16.87
2017-11-29T22:24:05.588Z,20.27
2017-11-29T22:26:34.377Z,18.73
2017-11-29T22:29:02.348Z,19.33
2017-11-29T22:31:30.360Z,19.63
2017-11-29T22:33:58.160Z,18.87
2017-11-29T22:36:25.908Z,20.33
2017-11-29T22:38:54.426Z,19.40
2017-11-29T22:41:22.110Z,20.20
2017-11-29T22:43:49.897Z,18.90
2017-11-29T22:46:17.726Z,18.57
2017-11-29T22:48:45.648Z,19.57
2017-11-29T22:51:15.405Z,18.83
2017-11-29T22:53:43.140Z,18.00
2017-11-29T22:56:10.775Z,20.40
2017-11-29T22:58:38.617Z,17.77
2017-11-29T23:01:07.658Z,16.73
2017-11-29T23:03:35.632Z,19.80
2017-11-29T23:06:03.691Z,17.60
2017-11-29T23:08:32.026Z,19.77
2017-11-29T23:11:01.211Z,20.07
2017-11-29T23:13:29.193Z,19.27
2017-11-29T23:15:57.410Z,19.80
2017-11-29T23:18:25.565Z,20.30
2017-11-29T23:20:53.650Z,19.17
2017-11-29T23:23:21.553Z,20.40
2017-11-29T23:25:49.563Z,20.37
2017-11-29T23:28:17.430Z,21.23
2017-11-29T23:30:45.290Z,20.97
2017-11-29T23:33:12.971Z,22.17
2017-11-29T23:35:40.657Z,21.27
2017-11-29T23:38:08.335Z,20.50
2017-11-29T23:40:35.969Z,21.83
2017-11-29T23:43:03.656Z,19.67
2017-11-29T23:45:31.356Z,21.23
2017-11-29T23:47:59.824Z,20.97
2017-11-29T23:50:28.228Z,20.93
2017-11-29T23:52:55.858Z,21.47
2017-11-29T23:55:24.057Z,21.80
2017-11-29T23:57:51.720Z,21.53
